createdAt,value
2023-03-13T00:00:06.395Z,11.08
2023-03-13T00:03:28.596Z,11.01
2023-03-13T00:06:50.437Z,10.90
2023-03-13T00:10:12.343Z,10.80
2023-03-13T00:13:35.107Z,10.82
2023-03-13T00:16:57.631Z,10.70
2023-03-13T00:20:19.505Z,10.63
2023-03-13T00:23:41.419Z,10.58
2023-03-13T00:27:05.000Z,11.78
2023-03-13T00:30:26.924Z,11.04
2023-03-13T00:33:53.026Z,10.47
2023-03-13T00:37:15.934Z,10.41
2023-03-13T00:40:38.196Z,10.41
2023-03-13T00:44:01.210Z,10.39
2023-03-13T00:47:30.587Z,10.30
2023-03-13T00:50:53.100Z,10.30
2023-03-13T00:54:15.357Z,10.23
2023-03-13T00:57:40.369Z,10.23
2023-03-13T01:01:13.265Z,10.20
2023-03-13T01:04:35.061Z,10.19
2023-03-13T01:07:56.864Z,10.13
2023-03-13T01:11:33.366Z,10.19
2023-03-13T01:14:55.206Z,10.22
2023-03-13T01:18:19.174Z,10.23
2023-03-13T01:21:43.494Z,10.24
2023-03-13T01:25:06.154Z,10.22
2023-03-13T01:28:30.085Z,10.27
2023-03-13T01:31:51.931Z,10.33
2023-03-13T01:35:15.158Z,10.28
2023-03-13T01:38:38.082Z,10.19
2023-03-13T01:41:59.845Z,10.27
2023-03-13T01:46:10.066Z,10.30
2023-03-13T01:49:47.436Z,10.25
2023-03-13T01:53:16.970Z,10.31
2023-03-13T01:56:58.651Z,10.33
2023-03-13T02:00:28.771Z,10.27
2023-03-13T02:03:52.455Z,10.41
2023-03-13T02:07:25.757Z,10.43
2023-03-13T02:11:21.621Z,10.45
2023-03-13T02:14:46.863Z,10.43
2023-03-13T02:18:11.425Z,10.52
2023-03-13T02:22:09.072Z,10.54
2023-03-13T02:25:47.181Z,10.61
2023-03-13T02:29:18.216Z,10.68
2023-03-13T02:32:45.366Z,10.71
2023-03-13T02:36:08.916Z,10.78
2023-03-13T02:39:35.615Z,10.87
2023-03-13T02:43:05.019Z,11.89
2023-03-13T02:46:27.360Z,12.28
2023-03-13T02:49:50.905Z,11.28
2023-03-13T02:53:13.047Z,11.40
2023-03-13T02:56:38.509Z,11.31
2023-03-13T03:00:06.820Z,11.36
2023-03-13T03:03:29.801Z,11.39
2023-03-13T03:06:54.260Z,11.44
2023-03-13T03:10:17.865Z,11.73
2023-03-13T03:13:39.741Z,11.50
2023-03-13T03:17:01.705Z,11.55
2023-03-13T03:20:23.869Z,11.60
2023-03-13T03:23:45.735Z,11.61
2023-03-13T03:27:07.942Z,11.64
2023-03-13T03:30:36.253Z,11.67
2023-03-13T03:33:58.139Z,11.68
2023-03-13T03:37:20.248Z,11.71
2023-03-13T03:40:42.112Z,11.73
2023-03-13T03:44:05.644Z,11.75
2023-03-13T03:47:42.659Z,11.78
2023-03-13T03:51:05.095Z,11.79
2023-03-13T03:54:29.666Z,11.79
2023-03-13T03:57:52.509Z,11.86
2023-03-13T04:01:28.506Z,11.90
2023-03-13T04:04:50.398Z,13.11
2023-03-13T04:08:20.404Z,13.29
2023-03-13T04:11:43.339Z,13.24
2023-03-13T04:15:07.591Z,13.14
2023-03-13T04:18:31.679Z,12.74
2023-03-13T04:21:53.978Z,13.25
2023-03-13T04:25:17.488Z,13.26
2023-03-13T04:28:39.879Z,13.34
2023-03-13T04:32:04.804Z,13.10
2023-03-13T04:35:55.853Z,13.16
2023-03-13T04:39:36.242Z,13.30
2023-03-13T04:43:27.262Z,13.24
2023-03-13T04:47:00.067Z,12.83
2023-03-13T04:50:39.486Z,13.26
2023-03-13T04:54:08.116Z,13.21
2023-03-13T04:57:45.643Z,12.73
2023-03-13T05:01:18.358Z,13.14
2023-03-13T05:04:58.820Z,13.43
2023-03-13T05:08:46.654Z,12.78
2023-03-13T05:12:23.294Z,13.24
2023-03-13T05:16:04.102Z,13.06
2023-03-13T05:19:51.662Z,13.08
2023-03-13T05:23:31.970Z,13.11
2023-03-13T05:27:03.450Z,12.98
2023-03-13T05:30:45.487Z,13.00
2023-03-13T05:34:19.181Z,13.03
2023-03-13T05:38:03.136Z,13.12
2023-03-13T05:41:33.060Z,13.12
2023-03-13T05:45:10.848Z,13.49
2023-03-13T05:48:52.615Z,13.61
2023-03-13T05:52:42.998Z,13.62
2023-03-13T05:56:12.273Z,13.12
2023-03-13T05:59:59.493Z,13.60
2023-03-13T06:03:21.464Z,13.59
2023-03-13T06:06:47.250Z,13.48
2023-03-13T06:10:11.754Z,13.53
2023-03-13T06:13:34.341Z,13.59
2023-03-13T06:17:05.129Z,13.68
2023-03-13T06:20:28.036Z,13.72
2023-03-13T06:23:50.840Z,13.77
2023-03-13T06:27:12.728Z,13.86
2023-03-13T06:30:34.698Z,13.86
2023-03-13T06:33:56.849Z,13.78
2023-03-13T06:37:18.697Z,13.85
2023-03-13T06:40:40.561Z,13.78
2023-03-13T06:44:04.406Z,13.62
2023-03-13T06:47:26.286Z,13.73
2023-03-13T06:50:48.584Z,13.72
2023-03-13T06:54:10.418Z,13.76
2023-03-13T06:57:32.224Z,13.66
2023-03-13T07:00:55.261Z,13.77
2023-03-13T07:04:20.041Z,13.81
2023-03-13T07:07:43.529Z,13.79
2023-03-13T07:11:12.819Z,14.00
2023-03-13T07:14:35.786Z,14.02
2023-03-13T07:17:58.593Z,14.04
2023-03-13T07:21:20.400Z,14.23
2023-03-13T07:24:42.276Z,14.20
2023-03-13T07:28:04.285Z,14.32
2023-03-13T07:31:27.197Z,14.39
2023-03-13T07:34:49.142Z,14.42
2023-03-13T07:38:11.109Z,14.52
2023-03-13T07:41:33.197Z,14.47
2023-03-13T07:44:55.001Z,14.37
2023-03-13T07:48:16.811Z,14.27
2023-03-13T07:51:44.046Z,14.18
2023-03-13T07:55:06.641Z,14.17
2023-03-13T07:58:32.251Z,14.23
2023-03-13T08:01:54.328Z,14.23
2023-03-13T08:05:17.171Z,14.25
2023-03-13T08:08:40.269Z,14.27
2023-03-13T08:12:02.296Z,14.25
2023-03-13T08:15:28.673Z,14.36
2023-03-13T08:18:55.988Z,14.49
2023-03-13T08:22:17.782Z,14.51
2023-03-13T08:25:40.615Z,14.57
2023-03-13T08:29:12.453Z,14.71
2023-03-13T08:32:35.937Z,14.80
2023-03-13T08:35:57.993Z,14.66
2023-03-13T08:39:21.369Z,14.64
2023-03-13T08:42:43.307Z,14.72
2023-03-13T08:46:06.259Z,14.52
2023-03-13T08:49:29.944Z,14.58
2023-03-13T08:52:51.846Z,14.68
2023-03-13T08:56:17.553Z,14.69
2023-03-13T08:59:41.427Z,14.85
2023-03-13T09:03:04.478Z,14.88
2023-03-13T09:06:27.438Z,15.03
2023-03-13T09:09:49.210Z,15.14
2023-03-13T09:13:11.154Z,15.14
2023-03-13T09:16:34.912Z,15.03
2023-03-13T09:20:00.613Z,15.05
2023-03-13T09:23:24.506Z,15.18
2023-03-13T09:27:00.108Z,15.11
2023-03-13T09:30:22.765Z,15.10
2023-03-13T09:33:46.616Z,15.28
2023-03-13T09:37:08.828Z,15.69
2023-03-13T09:40:39.183Z,15.83
2023-03-13T09:44:31.040Z,15.61
2023-03-13T09:48:08.628Z,15.51
2023-03-13T09:51:44.256Z,15.72
2023-03-13T09:55:22.771Z,15.68
2023-03-13T09:58:55.459Z,15.70
2023-03-13T10:02:35.171Z,15.82
2023-03-13T10:06:04.638Z,15.69
2023-03-13T10:09:33.537Z,15.87
2023-03-13T10:13:31.749Z,15.99
2023-03-13T10:17:10.069Z,16.31
2023-03-13T10:20:36.186Z,16.09
2023-03-13T10:24:39.919Z,16.15
2023-03-13T10:28:03.101Z,16.23
2023-03-13T10:31:37.584Z,16.64
2023-03-13T10:35:02.943Z,17.13
2023-03-13T10:38:25.762Z,17.58
2023-03-13T10:41:49.722Z,17.79
2023-03-13T10:45:19.771Z,18.51
2023-03-13T10:48:42.791Z,18.85
2023-03-13T10:52:07.891Z,18.69
2023-03-13T10:55:29.847Z,18.85
2023-03-13T10:58:54.578Z,19.03
2023-03-13T11:02:36.713Z,19.30
2023-03-13T11:06:01.922Z,19.26
2023-03-13T11:09:25.654Z,18.94
2023-03-13T11:12:51.714Z,18.30
2023-03-13T11:16:23.367Z,17.66
2023-03-13T11:20:00.226Z,17.60
2023-03-13T11:23:30.497Z,17.22
2023-03-13T11:27:19.113Z,17.01
2023-03-13T11:31:10.093Z,16.40
2023-03-13T11:34:47.053Z,15.98
2023-03-13T11:38:31.936Z,15.75
2023-03-13T11:42:17.592Z,15.60
2023-03-13T11:46:02.749Z,15.33
2023-03-13T11:50:15.938Z,15.13
2023-03-13T11:54:06.737Z,15.13
2023-03-13T11:57:52.908Z,15.09
2023-03-13T12:01:26.109Z,15.07
2023-03-13T12:05:01.677Z,15.12
2023-03-13T12:08:50.691Z,15.03
2023-03-13T12:12:37.602Z,15.06
2023-03-13T12:16:09.265Z,14.15
2023-03-13T12:19:53.482Z,14.39
2023-03-13T12:23:23.403Z,14.65
2023-03-13T12:26:59.128Z,15.07
2023-03-13T12:31:05.308Z,15.58
2023-03-13T12:34:55.404Z,15.85
2023-03-13T12:38:37.430Z,15.91
2023-03-13T12:42:44.225Z,15.82
2023-03-13T12:46:38.117Z,15.83
2023-03-13T12:50:23.926Z,15.59
2023-03-13T12:54:41.725Z,15.19
2023-03-13T12:58:26.284Z,15.30
2023-03-13T13:01:56.329Z,15.32
2023-03-13T13:05:22.108Z,15.19
2023-03-13T13:08:55.080Z,15.00
2023-03-13T13:12:24.125Z,15.08
2023-03-13T13:16:05.892Z,14.19
2023-03-13T13:19:27.729Z,14.70
2023-03-13T13:22:52.432Z,14.39
2023-03-13T13:26:26.657Z,14.41
2023-03-13T13:29:55.295Z,14.68
2023-03-13T13:33:27.928Z,14.54
2023-03-13T13:36:51.991Z,14.66
2023-03-13T13:40:26.207Z,15.37
2023-03-13T13:44:29.705Z,15.35
2023-03-13T13:48:24.226Z,15.21
2023-03-13T13:52:04.726Z,15.17
2023-03-13T13:55:26.472Z,15.22
2023-03-13T13:58:48.511Z,15.20
2023-03-13T14:02:36.017Z,15.37
2023-03-13T14:06:13.905Z,15.44
2023-03-13T14:10:02.056Z,15.58
2023-03-13T14:13:24.935Z,15.61
2023-03-13T14:16:51.425Z,15.70
2023-03-13T14:20:27.295Z,15.73
2023-03-13T14:23:55.592Z,15.73
2023-03-13T14:27:23.690Z,15.69
2023-03-13T14:30:49.558Z,15.76
2023-03-13T14:34:14.302Z,15.61
2023-03-13T14:37:54.428Z,15.80
2023-03-13T14:41:54.102Z,15.67
2023-03-13T14:46:12.596Z,15.55
2023-03-13T14:49:36.538Z,15.67
2023-03-13T14:53:17.238Z,15.50
2023-03-13T14:56:43.250Z,15.24
2023-03-13T15:00:39.769Z,15.38
2023-03-13T15:04:02.746Z,15.61
2023-03-13T15:07:54.257Z,15.50
2023-03-13T15:11:25.780Z,15.34
2023-03-13T15:14:59.892Z,15.32
2023-03-13T15:18:32.481Z,15.28
2023-03-13T15:21:54.727Z,15.15
2023-03-13T15:25:20.633Z,15.30
2023-03-13T15:28:42.477Z,15.51
2023-03-13T15:32:27.537Z,15.63
2023-03-13T15:35:56.493Z,15.78
2023-03-13T15:39:49.820Z,15.66
2023-03-13T15:43:13.532Z,15.56
2023-03-13T15:46:35.475Z,15.40
2023-03-13T15:49:57.308Z,15.35
2023-03-13T15:53:32.707Z,15.29
2023-03-13T15:56:54.652Z,15.25
2023-03-13T16:00:24.133Z,15.27
2023-03-13T16:03:49.077Z,15.47
2023-03-13T16:07:20.636Z,15.46
2023-03-13T16:10:42.756Z,15.45
2023-03-13T16:14:04.568Z,15.37
2023-03-13T16:17:28.165Z,15.20
2023-03-13T16:20:51.269Z,15.05
2023-03-13T16:24:20.768Z,14.94
2023-03-13T16:27:43.094Z,14.77
2023-03-13T16:31:06.271Z,14.82
2023-03-13T16:34:33.883Z,14.75
2023-03-13T16:37:57.832Z,14.73
2023-03-13T16:41:27.461Z,14.78
2023-03-13T16:44:51.353Z,14.60
2023-03-13T16:48:19.107Z,14.36
2023-03-13T16:51:41.404Z,14.17
2023-03-13T16:55:04.696Z,14.04
2023-03-13T16:58:32.305Z,13.91
2023-03-13T17:01:55.186Z,13.84
2023-03-13T17:05:27.745Z,13.83
2023-03-13T17:08:49.859Z,13.77
2023-03-13T17:12:11.800Z,13.61
2023-03-13T17:15:33.695Z,13.47
2023-03-13T17:18:56.376Z,13.41
2023-03-13T17:22:18.593Z,12.72
2023-03-13T17:25:40.484Z,12.54
2023-03-13T17:29:05.024Z,12.48
2023-03-13T17:32:26.832Z,12.49
2023-03-13T17:35:48.848Z,12.46
2023-03-13T17:39:14.799Z,12.41
2023-03-13T17:42:36.654Z,12.43
2023-03-13T17:46:03.590Z,12.22
2023-03-13T17:49:25.469Z,12.10
2023-03-13T17:52:55.250Z,12.04
2023-03-13T17:56:22.941Z,11.89
2023-03-13T17:59:46.359Z,11.79
2023-03-13T18:03:08.176Z,11.70
2023-03-13T18:06:46.061Z,12.31
2023-03-13T18:10:25.476Z,12.32
2023-03-13T18:13:50.369Z,12.38
2023-03-13T18:17:20.549Z,12.41
2023-03-13T18:20:45.507Z,12.38
2023-03-13T18:24:13.980Z,12.33
2023-03-13T18:27:36.286Z,12.28
2023-03-13T18:30:59.100Z,12.30
2023-03-13T18:34:22.990Z,12.23
2023-03-13T18:37:47.485Z,12.14
2023-03-13T18:41:11.518Z,12.09
2023-03-13T18:44:33.373Z,12.17
2023-03-13T18:47:56.322Z,12.16
2023-03-13T18:51:21.975Z,12.17
2023-03-13T18:54:44.825Z,12.14
2023-03-13T18:58:11.213Z,12.06
2023-03-13T19:01:33.175Z,12.01
2023-03-13T19:04:55.004Z,11.88
2023-03-13T19:08:17.945Z,11.86
2023-03-13T19:11:43.893Z,11.68
2023-03-13T19:15:08.440Z,11.58
2023-03-13T19:18:30.445Z,11.51
2023-03-13T19:21:57.045Z,10.55
2023-03-13T19:25:26.832Z,10.44
2023-03-13T19:28:50.808Z,10.40
2023-03-13T19:32:15.715Z,10.39
2023-03-13T19:35:38.694Z,10.32
2023-03-13T19:39:00.636Z,10.20
2023-03-13T19:42:22.591Z,10.10
2023-03-13T19:45:44.590Z,9.97
2023-03-13T19:49:20.169Z,9.89
2023-03-13T19:52:49.239Z,9.88
2023-03-13T19:56:25.004Z,9.80
2023-03-13T19:59:46.914Z,9.79
2023-03-13T20:03:10.825Z,9.77
2023-03-13T20:06:35.560Z,9.79
2023-03-13T20:09:57.502Z,10.44
2023-03-13T20:13:22.339Z,10.55
2023-03-13T20:16:46.421Z,10.53
2023-03-13T20:20:09.731Z,10.53
2023-03-13T20:23:31.759Z,10.43
2023-03-13T20:26:55.586Z,10.38
2023-03-13T20:30:17.605Z,10.33
2023-03-13T20:33:42.704Z,10.36
2023-03-13T20:37:04.829Z,10.35
2023-03-13T20:40:26.690Z,10.39
2023-03-13T20:43:48.472Z,10.47
2023-03-13T20:47:10.365Z,10.44
2023-03-13T20:50:32.254Z,10.44
2023-03-13T20:53:54.173Z,10.47
2023-03-13T20:57:17.947Z,10.56
2023-03-13T21:00:43.349Z,10.64
2023-03-13T21:04:05.255Z,10.89
2023-03-13T21:07:27.168Z,11.05
2023-03-13T21:10:49.352Z,11.14
2023-03-13T21:14:11.298Z,11.06
2023-03-13T21:17:34.065Z,11.07
2023-03-13T21:21:08.021Z,11.05
2023-03-13T21:24:30.185Z,10.98
2023-03-13T21:27:52.016Z,10.93
2023-03-13T21:31:18.044Z,11.08
2023-03-13T21:34:40.585Z,11.16
2023-03-13T21:38:02.534Z,11.04
2023-03-13T21:41:24.339Z,11.01
2023-03-13T21:44:53.786Z,11.08
2023-03-13T21:48:26.398Z,11.09
2023-03-13T21:51:50.240Z,11.02
2023-03-13T21:55:14.142Z,11.10
2023-03-13T21:58:35.953Z,11.21
2023-03-13T22:01:57.886Z,11.27
2023-03-13T22:05:19.843Z,11.21
2023-03-13T22:08:51.409Z,11.17
2023-03-13T22:12:15.438Z,11.16
2023-03-13T22:15:37.202Z,11.17
2023-03-13T22:18:59.025Z,11.15
2023-03-13T22:22:21.886Z,11.19
2023-03-13T22:25:49.610Z,11.14
2023-03-13T22:29:11.622Z,11.31
2023-03-13T22:32:34.439Z,11.45
2023-03-13T22:35:59.394Z,11.48
2023-03-13T22:39:24.319Z,11.33
2023-03-13T22:42:46.157Z,11.42
2023-03-13T22:46:10.229Z,11.54
2023-03-13T22:49:32.152Z,11.76
2023-03-13T22:52:53.960Z,11.67
2023-03-13T22:56:25.886Z,11.80
2023-03-13T22:59:48.332Z,11.67
2023-03-13T23:03:10.161Z,11.51
2023-03-13T23:06:32.056Z,11.55
2023-03-13T23:09:54.825Z,11.53
2023-03-13T23:13:16.863Z,11.59
2023-03-13T23:16:38.885Z,11.55
2023-03-13T23:20:01.186Z,11.52
2023-03-13T23:23:27.083Z,11.50
2023-03-13T23:26:49.884Z,11.37
2023-03-13T23:30:15.804Z,11.29
2023-03-13T23:33:38.240Z,11.40
2023-03-13T23:37:06.274Z,11.45
2023-03-13T23:40:28.843Z,11.65
2023-03-13T23:43:50.736Z,11.71
2023-03-13T23:47:13.724Z,11.69
2023-03-13T23:50:36.512Z,11.83
2023-03-13T23:53:58.405Z,11.77
2023-03-13T23:57:20.303Z,11.64
